logo
Search for airport 
image banner adimage banner adimage banner ad
image banner ad

FEFZ - Zemio

Located in , Central African Republic

ICAO - FEFZ, IATA - IMO

Data provided by Airmate  

General information

Coordinates: N5°3'0" E25°9'0"
Elevation is 1995 feet MSL.
 
View others Airports in Haut-Mbomou

Operational data

Special qualification required
Current time UTC:
Current local time:
Weather at : - ( 0 km )
METAR: CYKJ 220233Z AUTO 26004KT 5SM HZ BKN110 21/02 A2996 RMK SLP151 DENSITY ALT 2800FT
View NOTAMs / SUP AIP / TFR affecting this airport [VIEW]
Communications frequencies: [VIEW]

Runways:

Airport contact information

Address: Central African Republic

Satellite view of FEFZ